createdAt,value
2022-08-16T00:00:03.512Z,97648.84
2022-08-16T00:02:31.617Z,97642.47
2022-08-16T00:04:59.846Z,97648.94
2022-08-16T00:07:29.166Z,97642.56
2022-08-16T00:09:57.362Z,97642.75
2022-08-16T00:12:24.569Z,97653.94
2022-08-16T00:14:56.387Z,97644.50
2022-08-16T00:17:24.848Z,97643.19
2022-08-16T00:19:53.727Z,97649.59
2022-08-16T00:22:25.134Z,97647.16
2022-08-16T00:24:54.302Z,97638.25
2022-08-16T00:27:22.388Z,97642.81
2022-08-16T00:30:08.682Z,97640.34
2022-08-16T00:32:38.457Z,97635.09
2022-08-16T00:35:15.090Z,97637.34
2022-08-16T00:37:58.574Z,97648.31
2022-08-16T00:40:50.898Z,97644.00
2022-08-16T00:43:42.564Z,97647.94
2022-08-16T00:46:35.351Z,97658.75
2022-08-16T00:49:04.853Z,97656.84
2022-08-16T00:51:31.611Z,97656.75
2022-08-16T00:53:58.506Z,97654.72
2022-08-16T00:56:57.573Z,97663.22
2022-08-16T00:59:23.785Z,97668.28
2022-08-16T01:01:51.811Z,97662.91
2022-08-16T01:04:30.256Z,97664.75
2022-08-16T01:07:01.106Z,97672.00
2022-08-16T01:09:33.409Z,97664.19
2022-08-16T01:12:03.517Z,97667.72
2022-08-16T01:14:36.436Z,97667.25
2022-08-16T01:17:04.415Z,97670.97
2022-08-16T01:19:40.937Z,97659.06
2022-08-16T01:22:48.221Z,97667.09
2022-08-16T01:25:14.969Z,97663.25
2022-08-16T01:27:58.578Z,97663.75
2022-08-16T01:30:32.146Z,97660.25
2022-08-16T01:33:14.424Z,97664.25
2022-08-16T01:35:52.847Z,97670.03
2022-08-16T01:38:28.926Z,97667.22
2022-08-16T01:41:02.078Z,97670.44
2022-08-16T01:43:31.584Z,97660.69
2022-08-16T01:46:37.134Z,97677.03
2022-08-16T01:48:48.474Z,97678.91
2022-08-16T01:51:18.729Z,97675.03
2022-08-16T01:53:54.722Z,97677.91
2022-08-16T01:56:25.187Z,97674.34
2022-08-16T01:58:54.960Z,97673.16
2022-08-16T02:01:22.359Z,97668.47
2022-08-16T02:03:50.536Z,97662.56
2022-08-16T02:06:34.284Z,97661.06
2022-08-16T02:09:06.097Z,97659.53
2022-08-16T02:11:43.016Z,97664.97
2022-08-16T02:14:18.574Z,97656.22
2022-08-16T02:16:49.022Z,97644.59
2022-08-16T02:19:18.317Z,97662.78
2022-08-16T02:22:09.125Z,97653.84
2022-08-16T02:24:42.337Z,97657.91
2022-08-16T02:27:13.382Z,97656.06
2022-08-16T02:29:41.421Z,97649.31
2022-08-16T02:33:01.184Z,97659.22
2022-08-16T02:34:57.327Z,97657.91
2022-08-16T02:37:23.928Z,97651.50
2022-08-16T02:40:11.828Z,97652.53
2022-08-16T02:42:38.386Z,97651.72
2022-08-16T02:45:06.446Z,97648.97
2022-08-16T02:48:00.704Z,97649.63
2022-08-16T02:50:54.118Z,97651.78
2022-08-16T02:53:08.879Z,97647.59
2022-08-16T02:55:41.321Z,97639.81
2022-08-16T02:58:08.666Z,97645.06
2022-08-16T03:00:36.033Z,97648.44
2022-08-16T03:03:03.349Z,97650.81
2022-08-16T03:05:31.761Z,97638.19
2022-08-16T03:08:01.195Z,97647.63
2022-08-16T03:10:33.488Z,97654.88
2022-08-16T03:13:01.547Z,97648.13
2022-08-16T03:15:30.203Z,97652.69
2022-08-16T03:17:57.627Z,97647.47
2022-08-16T03:20:32.545Z,97641.38
2022-08-16T03:23:01.801Z,97658.25
2022-08-16T03:25:40.995Z,97659.56
2022-08-16T03:28:11.828Z,97667.50
2022-08-16T03:30:38.922Z,97671.72
2022-08-16T03:33:05.851Z,97668.53
2022-08-16T03:35:36.902Z,97671.56
2022-08-16T03:38:32.760Z,97673.44
2022-08-16T03:40:57.727Z,97677.78
2022-08-16T03:43:24.773Z,97687.22
2022-08-16T03:46:11.938Z,97690.59
2022-08-16T03:48:40.382Z,97682.34
2022-08-16T03:51:12.305Z,97671.56
2022-08-16T03:53:40.847Z,97687.38
2022-08-16T03:56:19.950Z,97675.38
2022-08-16T03:58:50.895Z,97689.84
2022-08-16T04:01:18.594Z,97700.31
2022-08-16T04:03:45.203Z,97698.59
2022-08-16T04:06:12.718Z,97698.22
2022-08-16T04:08:39.564Z,97700.06
2022-08-16T04:11:06.595Z,97697.00
2022-08-16T04:14:01.681Z,97694.31
2022-08-16T04:16:26.768Z,97688.41
2022-08-16T04:19:02.776Z,97699.38
2022-08-16T04:21:47.295Z,97699.94
2022-08-16T04:24:14.899Z,97712.41
2022-08-16T04:26:46.008Z,97714.78
2022-08-16T04:29:23.238Z,97710.34
2022-08-16T04:31:55.571Z,97709.66
2022-08-16T04:34:24.886Z,97705.28
2022-08-16T04:36:53.312Z,97685.19
2022-08-16T04:39:20.211Z,97693.44
2022-08-16T04:41:56.703Z,97702.81
2022-08-16T04:44:52.472Z,97706.66
2022-08-16T04:47:21.473Z,97708.78
2022-08-16T04:49:50.631Z,97712.44
2022-08-16T04:52:34.815Z,97700.25
2022-08-16T04:55:13.456Z,97710.44
2022-08-16T04:57:42.974Z,97706.56
2022-08-16T05:00:32.219Z,97711.75
2022-08-16T05:03:08.530Z,97710.09
2022-08-16T05:05:55.415Z,97722.41
2022-08-16T05:08:28.800Z,97718.88
2022-08-16T05:11:03.699Z,97730.50
2022-08-16T05:13:40.262Z,97733.03
2022-08-16T05:16:19.958Z,97743.47
2022-08-16T05:18:47.643Z,97731.53
2022-08-16T05:21:14.330Z,97745.84
2022-08-16T05:23:40.985Z,97753.56
2022-08-16T05:26:19.578Z,97748.38
2022-08-16T05:28:55.227Z,97756.19
2022-08-16T05:31:23.332Z,97747.44
2022-08-16T05:33:53.522Z,97761.38
2022-08-16T05:36:21.537Z,97761.81
2022-08-16T05:38:49.134Z,97761.38
2022-08-16T05:41:17.072Z,97768.03
2022-08-16T05:43:46.884Z,97725.41
2022-08-16T05:46:28.940Z,97775.53
2022-08-16T05:49:05.884Z,97768.16
2022-08-16T05:51:38.484Z,97764.06
2022-08-16T05:54:11.141Z,97774.03
2022-08-16T05:56:39.289Z,97767.97
2022-08-16T05:59:07.973Z,97769.34
2022-08-16T06:01:38.769Z,97776.19
2022-08-16T06:04:13.470Z,97781.09
2022-08-16T06:06:57.451Z,97778.75
2022-08-16T06:09:42.799Z,97777.84
2022-08-16T06:12:26.947Z,97782.72
2022-08-16T06:14:59.105Z,97785.50
2022-08-16T06:17:43.164Z,97781.91
2022-08-16T06:20:14.365Z,97778.16
2022-08-16T06:22:41.289Z,97784.53
2022-08-16T06:25:12.917Z,97778.75
2022-08-16T06:27:41.938Z,97775.88
2022-08-16T06:30:23.872Z,97776.69
2022-08-16T06:32:55.614Z,97773.41
2022-08-16T06:35:22.400Z,97774.03
2022-08-16T06:37:51.412Z,97766.28
2022-08-16T06:40:19.343Z,97765.03
2022-08-16T06:42:47.537Z,97758.84
2022-08-16T06:45:15.420Z,97761.50
2022-08-16T06:47:53.170Z,97764.84
2022-08-16T06:50:29.285Z,97743.22
2022-08-16T06:53:00.024Z,97745.88
2022-08-16T06:55:34.128Z,97748.19
2022-08-16T06:58:01.977Z,97746.81
2022-08-16T07:00:35.641Z,97748.75
2022-08-16T07:03:28.077Z,97744.84
2022-08-16T07:05:54.161Z,97746.84
2022-08-16T07:08:20.811Z,97753.00
2022-08-16T07:10:47.636Z,97762.09
2022-08-16T07:13:23.007Z,97761.78
2022-08-16T07:16:01.847Z,97759.06
2022-08-16T07:18:28.897Z,97764.13
2022-08-16T07:21:01.753Z,97764.06
2022-08-16T07:23:37.146Z,97763.69
2022-08-16T07:26:08.726Z,97762.00
2022-08-16T07:28:35.981Z,97768.78
2022-08-16T07:31:03.348Z,97750.53
2022-08-16T07:33:51.291Z,97755.13
2022-08-16T07:36:22.147Z,97754.91
2022-08-16T07:38:49.309Z,97773.88
2022-08-16T07:41:17.385Z,97770.84
2022-08-16T07:43:47.560Z,97777.00
2022-08-16T07:46:39.192Z,97780.59
2022-08-16T07:49:03.067Z,97767.59
2022-08-16T07:51:36.933Z,97774.72
2022-08-16T07:54:09.420Z,97768.03
2022-08-16T07:56:37.714Z,97769.66
2022-08-16T07:59:05.828Z,97762.50
2022-08-16T08:01:33.498Z,97760.97
2022-08-16T08:04:00.958Z,97766.88
2022-08-16T08:06:30.447Z,97761.28
2022-08-16T08:08:59.104Z,97753.31
2022-08-16T08:11:28.700Z,97752.38
2022-08-16T08:13:57.608Z,97743.19
2022-08-16T08:16:31.188Z,97754.50
2022-08-16T08:19:00.676Z,97750.19
2022-08-16T08:22:01.199Z,97751.31
2022-08-16T08:24:17.709Z,97747.16
2022-08-16T08:26:44.547Z,97751.88
2022-08-16T08:29:23.179Z,97756.66
2022-08-16T08:32:04.459Z,97755.09
2022-08-16T08:34:51.128Z,97754.72
2022-08-16T08:37:17.694Z,97759.03
2022-08-16T08:39:53.323Z,97755.44
2022-08-16T08:42:26.646Z,97758.56
2022-08-16T08:44:54.658Z,97753.94
2022-08-16T08:47:21.357Z,97758.31
2022-08-16T08:49:55.132Z,97756.75
2022-08-16T08:52:34.827Z,97752.59
2022-08-16T08:55:10.410Z,97749.75
2022-08-16T08:57:40.620Z,97747.84
2022-08-16T09:00:13.032Z,97750.44
2022-08-16T09:02:44.457Z,97744.44
2022-08-16T09:05:15.553Z,97743.00
2022-08-16T09:08:00.250Z,97746.66
2022-08-16T09:10:30.002Z,97752.97
2022-08-16T09:12:57.839Z,97750.34
2022-08-16T09:15:24.544Z,97743.16
2022-08-16T09:17:54.624Z,97741.63
2022-08-16T09:20:25.823Z,97739.97
2022-08-16T09:22:53.062Z,97742.16
2022-08-16T09:25:25.788Z,97719.38
2022-08-16T09:27:57.574Z,97730.13
2022-08-16T09:30:34.555Z,97721.84
2022-08-16T09:33:09.657Z,97718.59
2022-08-16T09:35:38.728Z,97711.47
2022-08-16T09:38:08.294Z,97710.66
2022-08-16T09:40:43.193Z,97705.88
2022-08-16T09:43:44.512Z,97719.50
2022-08-16T09:45:59.161Z,97723.91
2022-08-16T09:48:44.434Z,97710.72
2022-08-16T09:51:13.592Z,97719.72
2022-08-16T09:53:42.061Z,97715.00
2022-08-16T09:56:39.505Z,97718.06
2022-08-16T09:59:20.969Z,97713.91
2022-08-16T10:01:49.834Z,97706.03
2022-08-16T10:04:31.565Z,97712.91
2022-08-16T10:07:14.837Z,97699.84
2022-08-16T10:09:54.040Z,97698.97
2022-08-16T10:12:44.478Z,97704.41
2022-08-16T10:15:18.055Z,97700.53
2022-08-16T10:18:00.196Z,97696.38
2022-08-16T10:20:34.675Z,97685.41
2022-08-16T10:23:07.984Z,97703.41
2022-08-16T10:27:19.332Z,97704.72
2022-08-16T10:28:30.055Z,97699.19
2022-08-16T10:31:00.740Z,97704.19
2022-08-16T10:33:33.368Z,97702.94
2022-08-16T10:36:03.995Z,97701.03
2022-08-16T10:38:32.979Z,97707.97
2022-08-16T10:41:04.725Z,97709.03
2022-08-16T10:43:31.492Z,97708.16
2022-08-16T10:46:00.152Z,97717.75
2022-08-16T10:48:28.872Z,97717.69
2022-08-16T10:50:59.784Z,97708.16
2022-08-16T10:53:32.834Z,97710.31
2022-08-16T10:56:02.646Z,97718.22
2022-08-16T10:58:34.134Z,97711.91
2022-08-16T11:01:39.635Z,97708.44
2022-08-16T11:03:49.244Z,97701.16
2022-08-16T11:06:28.038Z,97710.91
2022-08-16T11:14:30.268Z,97700.75
2022-08-16T11:17:02.144Z,97718.38
2022-08-16T11:19:30.449Z,97715.00
2022-08-16T11:22:38.820Z,97714.31
2022-08-16T11:24:44.927Z,97718.75
2022-08-16T11:27:19.694Z,97704.03
2022-08-16T11:29:52.902Z,97714.78
2022-08-16T11:32:29.683Z,97716.00
2022-08-16T11:35:10.780Z,97714.25
2022-08-16T11:40:36.286Z,97709.34
2022-08-16T11:43:04.160Z,97710.34
2022-08-16T11:45:33.554Z,97712.50
2022-08-16T11:48:03.010Z,97706.16
2022-08-16T11:50:33.376Z,97711.66
2022-08-16T11:53:05.560Z,97714.41
2022-08-16T11:55:35.339Z,97718.00
2022-08-16T11:58:05.429Z,97706.53
2022-08-16T12:00:51.325Z,97716.34
2022-08-16T12:03:24.970Z,97705.72
2022-08-16T12:06:00.473Z,97718.28
2022-08-16T12:08:27.529Z,97713.78
2022-08-16T12:10:55.315Z,97721.63
2022-08-16T12:13:27.440Z,97713.97
2022-08-16T12:15:54.555Z,97711.88
2022-08-16T12:18:21.543Z,97733.88
2022-08-16T12:20:48.384Z,97733.41
2022-08-16T12:23:15.326Z,97747.56
2022-08-16T12:25:44.273Z,97767.38
2022-08-16T12:28:11.166Z,97782.56
2022-08-16T12:30:43.085Z,97773.50
2022-08-16T12:33:12.049Z,97758.91
2022-08-16T12:35:39.604Z,97758.97
2022-08-16T12:38:10.353Z,97771.34
2022-08-16T12:40:57.148Z,97784.44
2022-08-16T12:43:25.374Z,97797.94
2022-08-16T12:45:55.153Z,97793.94
2022-08-16T12:48:44.427Z,97777.38
2022-08-16T12:51:19.571Z,97783.00
2022-08-16T12:53:47.728Z,97780.72
2022-08-16T12:56:14.482Z,97776.19
2022-08-16T12:58:48.710Z,97769.56
2022-08-16T13:01:23.140Z,97767.09
2022-08-16T13:03:59.087Z,97748.34
2022-08-16T13:06:37.214Z,97758.59
2022-08-16T13:09:20.227Z,97751.63
2022-08-16T13:12:03.631Z,97737.50
2022-08-16T13:14:41.507Z,97737.06
2022-08-16T13:17:18.462Z,97722.72
2022-08-16T13:22:35.239Z,97720.66
2022-08-16T13:25:02.128Z,97709.53
2022-08-16T13:27:34.952Z,97716.38
2022-08-16T13:30:36.375Z,97702.84
2022-08-16T13:33:01.992Z,97696.88
2022-08-16T13:35:38.447Z,97706.81
2022-08-16T13:38:10.224Z,97693.66
2022-08-16T13:40:49.023Z,97703.38
2022-08-16T13:43:19.603Z,97693.50
2022-08-16T13:45:46.236Z,97691.56
2022-08-16T13:48:24.921Z,97689.31
2022-08-16T13:50:54.794Z,97662.88
2022-08-16T13:53:24.299Z,97682.03
2022-08-16T13:55:58.627Z,97691.56
2022-08-16T13:58:35.659Z,97676.59
2022-08-16T14:01:09.666Z,97672.81
2022-08-16T14:03:37.537Z,97680.16
2022-08-16T14:06:04.256Z,97667.66
2022-08-16T14:08:30.846Z,97675.59
2022-08-16T14:10:57.445Z,97675.19
2022-08-16T14:13:24.550Z,97675.41
2022-08-16T14:15:51.642Z,97675.47
2022-08-16T14:18:20.327Z,97673.50
2022-08-16T14:20:48.637Z,97656.50
2022-08-16T14:23:23.714Z,97663.22
2022-08-16T14:25:54.019Z,97657.44
2022-08-16T14:28:23.471Z,97649.81
2022-08-16T14:30:50.418Z,97658.31
2022-08-16T14:33:18.698Z,97670.03
2022-08-16T14:35:49.238Z,97666.84
2022-08-16T14:38:23.655Z,97675.59
2022-08-16T14:40:55.070Z,97682.31
2022-08-16T14:43:24.116Z,97703.06
2022-08-16T14:45:50.868Z,97686.72
2022-08-16T14:48:25.909Z,97689.59
2022-08-16T14:50:54.015Z,97701.97
2022-08-16T14:53:20.966Z,97698.81
2022-08-16T14:55:48.511Z,97699.94
2022-08-16T14:58:19.525Z,97696.72
2022-08-16T15:00:50.397Z,97705.38
2022-08-16T15:03:18.902Z,97711.53
2022-08-16T15:05:48.491Z,97725.84
2022-08-16T15:08:17.137Z,97727.28
2022-08-16T15:10:46.940Z,97727.25
2022-08-16T15:13:15.093Z,97725.44
2022-08-16T15:15:43.398Z,97730.88
2022-08-16T15:18:13.843Z,97744.75
2022-08-16T15:20:54.496Z,97755.91
2022-08-16T15:23:21.075Z,97749.09
2022-08-16T15:25:53.421Z,97746.88
2022-08-16T15:28:31.750Z,97752.50
2022-08-16T15:31:04.399Z,97743.63
2022-08-16T15:33:42.084Z,97744.75
2022-08-16T15:36:13.927Z,97761.09
2022-08-16T15:39:02.610Z,97761.50
2022-08-16T15:41:43.686Z,97755.63
2022-08-16T15:44:21.286Z,97753.75
2022-08-16T15:46:57.102Z,97749.25
2022-08-16T15:49:34.406Z,97751.72
2022-08-16T15:52:10.467Z,97763.16
2022-08-16T15:54:52.763Z,97766.75
2022-08-16T15:57:24.380Z,97759.94
2022-08-16T15:59:52.764Z,97763.13
2022-08-16T16:02:30.979Z,97757.50
2022-08-16T16:05:01.750Z,97750.38
2022-08-16T16:07:30.292Z,97757.94
2022-08-16T16:09:59.224Z,97759.19
2022-08-16T16:12:52.896Z,97749.16
2022-08-16T16:15:17.364Z,97755.22
2022-08-16T16:17:44.051Z,97758.34
2022-08-16T16:20:19.395Z,97760.47
2022-08-16T16:22:46.315Z,97749.75
2022-08-16T16:25:15.953Z,97755.84
2022-08-16T16:27:44.237Z,97748.94
2022-08-16T16:30:33.185Z,97742.88
2022-08-16T16:33:01.071Z,97765.91
2022-08-16T16:35:32.568Z,97755.44
2022-08-16T16:38:00.162Z,97760.47
2022-08-16T16:40:32.132Z,97758.16
2022-08-16T16:43:00.004Z,97755.38
2022-08-16T16:45:33.318Z,97750.34
2022-08-16T16:48:02.864Z,97759.09
2022-08-16T16:50:44.665Z,97756.34
2022-08-16T16:53:17.242Z,97743.56
2022-08-16T16:55:51.563Z,97747.34
2022-08-16T16:58:43.374Z,97756.16
2022-08-16T17:01:20.932Z,97757.81
2022-08-16T17:04:19.159Z,97758.63
2022-08-16T17:06:53.468Z,97764.97
2022-08-16T17:09:23.842Z,97765.13
2022-08-16T17:11:54.936Z,97765.94
2022-08-16T17:14:33.438Z,97776.91
2022-08-16T17:17:04.198Z,97778.50
2022-08-16T17:22:20.353Z,97776.41
2022-08-16T17:24:50.581Z,97788.94
2022-08-16T17:27:33.270Z,97784.38
2022-08-16T17:30:15.823Z,97795.88
2022-08-16T17:32:48.438Z,97796.88
2022-08-16T17:35:20.174Z,97797.25
2022-08-16T17:37:54.158Z,97804.94
2022-08-16T17:39:28.236Z,97780.59
2022-08-16T17:40:40.801Z,97811.56
2022-08-16T17:43:16.386Z,97811.28
2022-08-16T17:45:43.665Z,97816.91
2022-08-16T17:48:10.868Z,97822.50
2022-08-16T17:50:38.020Z,97831.69
2022-08-16T17:53:06.181Z,97835.88
2022-08-16T17:55:36.575Z,97841.66
2022-08-16T17:58:09.922Z,97833.59
2022-08-16T18:00:52.137Z,97836.13
2022-08-16T18:04:02.537Z,97836.94
2022-08-16T18:06:13.437Z,97841.28
2022-08-16T18:08:41.506Z,97836.63
2022-08-16T18:11:09.707Z,97837.53
2022-08-16T18:13:43.070Z,97833.91
2022-08-16T18:16:11.246Z,97845.72
2022-08-16T18:18:38.282Z,97839.63
2022-08-16T18:21:23.801Z,97847.75
2022-08-16T18:23:50.554Z,97843.16
2022-08-16T18:26:17.229Z,97846.06
2022-08-16T18:28:43.819Z,97856.88
2022-08-16T18:31:10.427Z,97855.41
2022-08-16T18:33:43.808Z,97841.56
2022-08-16T18:36:20.084Z,97855.59
2022-08-16T18:38:49.409Z,97854.47
2022-08-16T18:41:16.616Z,97848.09
2022-08-16T18:44:24.261Z,97851.00
2022-08-16T18:46:29.750Z,97847.44
2022-08-16T18:48:56.301Z,97847.22
2022-08-16T18:51:25.223Z,97858.84
2022-08-16T18:53:52.485Z,97854.84
2022-08-16T18:56:19.657Z,97864.00
2022-08-16T18:58:46.317Z,97868.13
2022-08-16T19:01:13.172Z,97861.41
2022-08-16T19:03:39.921Z,97870.06
2022-08-16T19:06:13.631Z,97866.22
2022-08-16T19:08:42.470Z,97864.81
2022-08-16T19:11:14.075Z,97864.72
2022-08-16T19:13:44.300Z,97865.72
2022-08-16T19:16:12.120Z,97867.25
2022-08-16T19:18:38.938Z,97863.41
2022-08-16T19:21:06.409Z,97871.38
2022-08-16T19:23:35.970Z,97870.22
2022-08-16T19:26:10.901Z,97877.59
2022-08-16T19:28:58.798Z,97873.22
2022-08-16T19:31:32.751Z,97880.13
2022-08-16T19:34:00.427Z,97881.88
2022-08-16T19:36:38.025Z,97881.94
2022-08-16T19:39:10.494Z,97879.28
2022-08-16T19:41:39.623Z,97877.19
2022-08-16T19:44:07.136Z,97880.28
2022-08-16T19:46:34.475Z,97880.66
2022-08-16T19:49:01.214Z,97882.22
2022-08-16T19:51:27.821Z,97884.31
2022-08-16T19:53:54.441Z,97880.09
2022-08-16T19:56:23.127Z,97879.63
2022-08-16T19:59:17.011Z,97880.66
2022-08-16T20:01:41.959Z,97887.81
2022-08-16T20:04:12.561Z,97886.13
2022-08-16T20:06:39.930Z,97887.28
2022-08-16T20:09:07.018Z,97886.78
2022-08-16T20:11:35.123Z,97893.13
2022-08-16T20:14:02.283Z,97896.00
2022-08-16T20:16:28.972Z,97892.31
2022-08-16T20:18:55.526Z,97892.00
2022-08-16T20:21:22.377Z,97904.72
2022-08-16T20:23:49.051Z,97887.88
2022-08-16T20:26:15.910Z,97905.44
2022-08-16T20:28:53.846Z,97906.28
2022-08-16T20:31:25.055Z,97897.19
2022-08-16T20:33:53.110Z,97903.59
2022-08-16T20:36:19.740Z,97901.28
2022-08-16T20:38:47.748Z,97904.00
2022-08-16T20:41:16.321Z,97904.69
2022-08-16T20:43:43.535Z,97912.97
2022-08-16T20:46:12.537Z,97908.41
2022-08-16T20:48:39.104Z,97913.16
2022-08-16T20:51:06.863Z,97916.84
2022-08-16T20:53:34.034Z,97904.22
2022-08-16T20:56:00.774Z,97908.81
2022-08-16T20:58:27.352Z,97910.50
2022-08-16T21:00:53.964Z,97908.47
2022-08-16T21:03:20.680Z,97911.38
2022-08-16T21:05:47.305Z,97912.56
2022-08-16T21:08:46.552Z,97912.72
2022-08-16T21:11:02.719Z,97900.59
2022-08-16T21:13:30.937Z,97912.56
2022-08-16T21:15:59.462Z,97918.28
2022-08-16T21:18:26.258Z,97904.84
2022-08-16T21:20:53.655Z,97912.22
2022-08-16T21:23:20.675Z,97917.97
2022-08-16T21:25:58.274Z,97922.19
2022-08-16T21:28:40.214Z,97920.00
2022-08-16T21:31:13.705Z,97912.41
2022-08-16T21:33:40.848Z,97912.94
2022-08-16T21:36:07.875Z,97921.34
2022-08-16T21:38:34.765Z,97925.56
2022-08-16T21:41:03.388Z,97921.34
2022-08-16T21:43:33.493Z,97918.81
2022-08-16T21:46:05.755Z,97921.88
2022-08-16T21:48:35.981Z,97916.47
2022-08-16T21:51:12.646Z,97927.78
2022-08-16T21:53:39.846Z,97923.38
2022-08-16T21:56:07.164Z,97926.25
2022-08-16T21:58:36.756Z,97931.16
2022-08-16T22:01:03.805Z,97929.44
2022-08-16T22:03:32.847Z,97925.75
2022-08-16T22:06:12.745Z,97929.28
2022-08-16T22:08:46.806Z,97931.47
2022-08-16T22:11:22.230Z,97928.44
2022-08-16T22:13:57.750Z,97928.75
2022-08-16T22:16:39.782Z,97921.00
2022-08-16T22:19:06.711Z,97925.56
2022-08-16T22:21:34.371Z,97921.00
2022-08-16T22:24:01.235Z,97920.66
2022-08-16T22:26:31.738Z,97923.03
2022-08-16T22:29:12.238Z,97924.53
2022-08-16T22:31:40.540Z,97931.63
2022-08-16T22:34:08.909Z,97934.81
2022-08-16T22:36:36.100Z,97940.19
2022-08-16T22:39:05.026Z,97941.38
2022-08-16T22:41:33.286Z,97934.13
2022-08-16T22:44:02.105Z,97945.25
2022-08-16T22:46:28.912Z,97942.00
2022-08-16T22:48:55.731Z,97934.56
2022-08-16T22:51:24.695Z,97935.75
2022-08-16T22:53:51.939Z,97934.25
2022-08-16T22:56:19.781Z,97932.88
2022-08-16T22:58:46.843Z,97942.66
2022-08-16T23:01:14.790Z,97937.25
2022-08-16T23:03:41.986Z,97941.81
2022-08-16T23:06:11.972Z,97936.75
2022-08-16T23:08:41.209Z,97938.44
2022-08-16T23:11:13.929Z,97936.88
2022-08-16T23:13:50.110Z,97936.88
2022-08-16T23:16:30.850Z,97936.22
2022-08-16T23:18:59.935Z,97927.59
2022-08-16T23:21:26.638Z,97926.25
2022-08-16T23:23:53.997Z,97930.81
2022-08-16T23:26:44.065Z,97929.78
2022-08-16T23:29:21.177Z,97921.88
2022-08-16T23:31:50.512Z,97924.91
2022-08-16T23:34:20.334Z,97927.25
2022-08-16T23:36:46.998Z,97927.59
2022-08-16T23:39:13.571Z,97936.31
2022-08-16T23:41:40.439Z,97936.66
2022-08-16T23:44:56.559Z,97940.84
2022-08-16T23:46:53.588Z,97935.63
2022-08-16T23:49:57.514Z,97935.09
2022-08-16T23:52:10.644Z,97943.34
2022-08-16T23:54:37.248Z,97931.19
2022-08-16T23:57:04.352Z,97930.50
2022-08-16T23:59:35.927Z,97932.91
